createdAt,value
2022-12-08T00:00:49.505Z,83.88
2022-12-08T00:03:19.727Z,84.34
2022-12-08T00:06:09.440Z,84.31
2022-12-08T00:08:57.883Z,84.91
2022-12-08T00:11:28.241Z,85.19
2022-12-08T00:13:58.626Z,84.89
2022-12-08T00:16:29.037Z,85.19
2022-12-08T00:18:59.494Z,84.63
2022-12-08T00:21:30.813Z,85.02
2022-12-08T00:24:01.161Z,85.22
2022-12-08T00:26:31.360Z,85.09
2022-12-08T00:29:01.807Z,85.02
2022-12-08T00:31:32.261Z,84.32
2022-12-08T00:34:02.913Z,85.15
2022-12-08T00:36:33.324Z,85.72
2022-12-08T00:39:03.735Z,85.39
2022-12-08T00:41:52.136Z,85.16
2022-12-08T00:44:22.389Z,86.13
2022-12-08T00:46:51.978Z,84.61
2022-12-08T00:49:22.632Z,84.69
2022-12-08T00:51:53.105Z,84.96
2022-12-08T00:54:24.717Z,85.49
2022-12-08T00:56:55.148Z,85.88
2022-12-08T00:59:25.301Z,86.12
2022-12-08T01:01:55.055Z,85.78
2022-12-08T01:04:25.095Z,86.43
2022-12-08T01:06:55.413Z,86.24
2022-12-08T01:09:25.618Z,87.21
2022-12-08T01:11:55.360Z,85.69
2022-12-08T01:14:25.302Z,86.45
2022-12-08T01:16:55.549Z,86.91
2022-12-08T01:19:25.910Z,86.62
2022-12-08T01:21:56.207Z,87.17
2022-12-08T01:24:26.560Z,86.54
2022-12-08T01:26:56.829Z,87.08
2022-12-08T01:29:28.059Z,87.49
2022-12-08T01:31:58.337Z,87.89
2022-12-08T01:34:28.634Z,87.73
2022-12-08T01:36:59.012Z,87.91
2022-12-08T01:39:29.316Z,88.05
2022-12-08T01:41:59.325Z,87.30
2022-12-08T01:44:29.521Z,86.93
2022-12-08T01:46:59.938Z,87.87
2022-12-08T01:49:34.690Z,88.72
2022-12-08T01:52:23.301Z,88.39
2022-12-08T01:55:04.146Z,87.86
2022-12-08T01:57:43.409Z,88.15
2022-12-08T02:00:17.892Z,88.71
2022-12-08T02:03:01.554Z,88.24
2022-12-08T02:05:34.952Z,87.96
2022-12-08T02:08:09.555Z,88.06
2022-12-08T02:10:42.494Z,88.31
2022-12-08T02:13:16.592Z,88.32
2022-12-08T02:15:52.863Z,88.08
2022-12-08T02:19:08.041Z,88.09
2022-12-08T02:21:50.847Z,87.46
2022-12-08T02:24:34.960Z,87.95
2022-12-08T02:27:28.508Z,88.10
2022-12-08T02:30:08.644Z,87.93
2022-12-08T02:32:57.391Z,87.89
2022-12-08T02:35:37.037Z,88.29
2022-12-08T02:38:40.778Z,88.56
2022-12-08T02:41:54.924Z,87.61
2022-12-08T02:44:34.099Z,88.13
2022-12-08T02:47:13.577Z,88.57
2022-12-08T02:49:43.813Z,89.15
2022-12-08T02:52:13.871Z,89.18
2022-12-08T02:54:45.258Z,89.01
2022-12-08T02:57:27.863Z,89.50
2022-12-08T03:00:08.362Z,89.82
2022-12-08T03:02:57.715Z,90.20
2022-12-08T03:05:33.871Z,90.48
2022-12-08T03:08:24.844Z,90.09
2022-12-08T03:11:32.690Z,89.67
2022-12-08T03:14:06.113Z,89.85
2022-12-08T03:16:39.904Z,89.65
2022-12-08T03:19:22.932Z,89.81
2022-12-08T03:22:03.994Z,90.91
2022-12-08T03:24:43.742Z,91.52
2022-12-08T03:27:22.210Z,91.94
2022-12-08T03:29:55.792Z,91.82
2022-12-08T03:32:31.250Z,91.31
2022-12-08T03:35:05.826Z,92.12
2022-12-08T03:37:38.098Z,91.54
2022-12-08T03:40:11.861Z,92.83
2022-12-08T03:42:42.319Z,91.76
2022-12-08T03:45:12.978Z,92.87
2022-12-08T03:47:43.262Z,93.22
2022-12-08T03:50:13.616Z,92.57
2022-12-08T03:52:43.908Z,92.16
2022-12-08T03:55:14.438Z,92.00
2022-12-08T03:57:44.525Z,91.63
2022-12-08T04:00:16.533Z,90.93
2022-12-08T04:02:46.825Z,91.59
2022-12-08T04:05:16.742Z,90.53
2022-12-08T04:07:46.635Z,91.27
2022-12-08T04:10:16.704Z,91.71
2022-12-08T04:12:46.640Z,91.46
2022-12-08T04:15:16.656Z,91.25
2022-12-08T04:17:46.669Z,91.29
2022-12-08T04:20:16.815Z,92.02
2022-12-08T04:22:46.865Z,91.79
2022-12-08T04:25:17.379Z,91.61
2022-12-08T04:27:47.566Z,92.08
2022-12-08T04:30:17.929Z,92.53
2022-12-08T04:32:48.197Z,93.17
2022-12-08T04:35:18.048Z,92.22
2022-12-08T04:37:48.200Z,92.38
2022-12-08T04:40:18.423Z,92.46
2022-12-08T04:42:48.895Z,92.59
2022-12-08T04:45:19.196Z,92.51
2022-12-08T04:47:48.961Z,91.65
2022-12-08T04:50:19.247Z,91.53
2022-12-08T04:52:49.578Z,92.05
2022-12-08T04:55:19.985Z,92.98
2022-12-08T04:57:50.318Z,93.78
2022-12-08T05:00:20.900Z,93.80
2022-12-08T05:02:51.406Z,93.29
2022-12-08T05:05:21.739Z,93.18
2022-12-08T05:07:52.450Z,93.01
2022-12-08T05:10:23.201Z,92.71
2022-12-08T05:12:53.248Z,92.53
2022-12-08T05:15:22.891Z,91.75
2022-12-08T05:17:53.038Z,92.54
2022-12-08T05:20:23.112Z,92.09
2022-12-08T05:22:53.154Z,92.87
2022-12-08T05:25:23.490Z,93.02
2022-12-08T05:28:06.124Z,93.27
2022-12-08T05:30:44.132Z,93.91
2022-12-08T05:33:14.417Z,92.93
2022-12-08T05:35:44.461Z,92.64
2022-12-08T05:38:14.572Z,93.47
2022-12-08T05:40:44.876Z,93.67
2022-12-08T05:43:15.155Z,92.92
2022-12-08T05:45:45.085Z,92.60
2022-12-08T05:48:15.300Z,93.30
2022-12-08T05:50:49.339Z,92.62
2022-12-08T05:53:21.262Z,93.06
2022-12-08T05:55:51.618Z,93.18
2022-12-08T05:58:23.987Z,93.34
2022-12-08T06:00:54.295Z,93.08
2022-12-08T06:03:24.075Z,92.82
2022-12-08T06:05:54.329Z,93.47
2022-12-08T06:08:24.137Z,92.83
2022-12-08T06:10:54.638Z,95.18
2022-12-08T06:13:24.846Z,94.63
2022-12-08T06:15:54.851Z,94.69
2022-12-08T06:18:29.687Z,94.56
2022-12-08T06:21:10.855Z,95.08
2022-12-08T06:23:41.436Z,95.49
2022-12-08T06:26:16.521Z,95.86
2022-12-08T06:28:46.894Z,95.84
2022-12-08T06:31:25.060Z,95.75
2022-12-08T06:33:56.453Z,95.79
2022-12-08T06:36:29.418Z,95.71
2022-12-08T06:38:59.790Z,95.29
2022-12-08T06:41:30.234Z,95.15
2022-12-08T06:44:00.954Z,94.80
2022-12-08T06:46:31.352Z,94.30
2022-12-08T06:49:01.634Z,94.40
2022-12-08T06:51:31.429Z,94.04
2022-12-08T06:54:01.331Z,94.42
2022-12-08T06:56:31.438Z,93.84
2022-12-08T06:59:01.533Z,94.64
2022-12-08T07:01:32.010Z,94.34
2022-12-08T07:04:02.264Z,94.83
2022-12-08T07:06:32.307Z,95.01
2022-12-08T07:09:01.967Z,93.73
2022-12-08T07:11:32.224Z,94.22
2022-12-08T07:14:02.524Z,93.74
2022-12-08T07:16:32.275Z,93.71
2022-12-08T07:19:05.014Z,94.02
2022-12-08T07:21:35.593Z,94.13
2022-12-08T07:24:05.943Z,94.47
2022-12-08T07:26:35.875Z,93.77
2022-12-08T07:29:06.075Z,94.58
2022-12-08T07:31:35.824Z,94.18
2022-12-08T07:34:05.749Z,94.08
2022-12-08T07:36:35.870Z,94.42
2022-12-08T07:39:06.402Z,94.49
2022-12-08T07:41:36.831Z,94.38
2022-12-08T07:44:07.095Z,95.23
2022-12-08T07:46:37.383Z,94.76
2022-12-08T07:49:07.631Z,94.51
2022-12-08T07:51:37.953Z,94.45
2022-12-08T07:54:07.736Z,94.07
2022-12-08T07:56:37.651Z,94.32
2022-12-08T07:59:07.722Z,94.32
2022-12-08T08:01:37.969Z,93.85
2022-12-08T08:04:08.535Z,93.68
2022-12-08T08:06:39.271Z,94.30
2022-12-08T08:09:11.301Z,95.51
2022-12-08T08:11:42.138Z,93.97
2022-12-08T08:14:12.403Z,95.30
2022-12-08T08:16:48.062Z,94.28
2022-12-08T08:19:18.261Z,94.60
2022-12-08T08:21:48.399Z,94.54
2022-12-08T08:24:18.932Z,94.56
2022-12-08T08:26:49.407Z,95.09
2022-12-08T08:29:19.033Z,94.32
2022-12-08T08:31:49.120Z,95.22
2022-12-08T08:34:19.671Z,95.05
2022-12-08T08:36:49.835Z,95.35
2022-12-08T08:39:20.011Z,95.91
2022-12-08T08:41:50.414Z,96.07
2022-12-08T08:44:20.790Z,96.04
2022-12-08T08:46:50.879Z,96.75
2022-12-08T08:49:21.408Z,95.94
2022-12-08T08:51:51.441Z,95.96
2022-12-08T08:54:21.493Z,94.84
2022-12-08T08:56:51.726Z,94.52
2022-12-08T08:59:21.930Z,94.10
2022-12-08T09:01:52.042Z,94.18
2022-12-08T09:04:23.330Z,93.70
2022-12-08T09:06:54.317Z,94.02
2022-12-08T09:09:24.592Z,93.63
2022-12-08T09:11:56.509Z,93.69
2022-12-08T09:14:27.087Z,93.47
2022-12-08T09:16:56.665Z,92.97
2022-12-08T09:19:26.655Z,92.70
2022-12-08T09:21:56.843Z,91.70
2022-12-08T09:24:26.500Z,91.74
2022-12-08T09:26:56.466Z,92.35
2022-12-08T09:29:31.040Z,91.93
2022-12-08T09:32:04.533Z,91.56
2022-12-08T09:34:34.843Z,91.28
2022-12-08T09:37:04.765Z,90.49
2022-12-08T09:39:34.754Z,91.13
2022-12-08T09:42:08.131Z,90.26
2022-12-08T09:45:01.233Z,90.33
2022-12-08T09:47:57.896Z,90.42
2022-12-08T09:50:42.049Z,90.70
2022-12-08T09:53:21.313Z,89.99
2022-12-08T09:55:56.419Z,89.52
2022-12-08T09:58:53.160Z,90.48
2022-12-08T10:01:26.126Z,88.98
2022-12-08T10:03:57.351Z,88.95
2022-12-08T10:07:19.609Z,88.96
2022-12-08T10:10:15.999Z,89.03
2022-12-08T10:13:01.113Z,88.70
2022-12-08T10:15:37.985Z,86.65
2022-12-08T10:18:27.081Z,87.46
2022-12-08T10:21:06.809Z,88.19
2022-12-08T10:23:40.203Z,86.65
2022-12-08T10:26:16.786Z,86.55
2022-12-08T10:28:47.834Z,86.26
2022-12-08T10:31:21.083Z,86.81
2022-12-08T10:34:15.881Z,86.16
2022-12-08T10:36:53.552Z,85.07
2022-12-08T10:39:41.901Z,86.15
2022-12-08T10:42:23.281Z,85.51
2022-12-08T10:45:17.637Z,85.50
2022-12-08T10:48:04.672Z,84.61
2022-12-08T10:50:38.341Z,83.81
2022-12-08T10:53:11.586Z,82.83
2022-12-08T10:56:04.010Z,82.28
2022-12-08T10:58:43.174Z,82.31
2022-12-08T11:01:21.680Z,82.77
2022-12-08T11:04:04.297Z,80.06
2022-12-08T11:06:37.785Z,79.76
2022-12-08T11:09:22.437Z,80.46
2022-12-08T11:12:09.077Z,80.86
2022-12-08T11:14:45.217Z,79.15
2022-12-08T11:17:24.448Z,79.72
2022-12-08T11:20:03.615Z,80.07
2022-12-08T11:22:36.047Z,77.96
2022-12-08T11:25:09.380Z,78.93
2022-12-08T11:27:45.703Z,78.58
2022-12-08T11:30:20.865Z,78.66
2022-12-08T11:32:56.078Z,77.36
2022-12-08T11:35:31.520Z,77.74
2022-12-08T11:38:23.276Z,76.53
2022-12-08T11:41:15.772Z,76.47
2022-12-08T11:44:07.651Z,76.19
2022-12-08T11:47:11.017Z,74.85
2022-12-08T11:49:43.396Z,75.57
2022-12-08T11:52:34.131Z,75.66
2022-12-08T11:55:49.868Z,75.70
2022-12-08T11:58:29.612Z,72.90
2022-12-08T12:00:59.985Z,73.07
2022-12-08T12:03:37.168Z,73.96
2022-12-08T12:06:38.270Z,74.27
2022-12-08T12:09:29.692Z,72.10
2022-12-08T12:12:46.760Z,73.39
2022-12-08T12:15:57.966Z,72.15
2022-12-08T12:18:31.060Z,70.86
2022-12-08T12:21:07.435Z,71.07
2022-12-08T12:23:58.982Z,70.12
2022-12-08T12:26:37.551Z,71.00
2022-12-08T12:29:18.872Z,71.78
2022-12-08T12:31:53.754Z,71.44
2022-12-08T12:34:29.921Z,70.05
2022-12-08T12:37:18.611Z,69.55
2022-12-08T12:39:58.944Z,69.91
2022-12-08T12:42:43.156Z,68.77
2022-12-08T12:45:18.633Z,67.16
2022-12-08T12:47:56.355Z,68.09
2022-12-08T12:50:36.160Z,66.98
2022-12-08T12:53:27.433Z,68.51
2022-12-08T12:56:01.314Z,65.47
2022-12-08T12:58:31.544Z,67.91
2022-12-08T13:01:11.065Z,67.06
2022-12-08T13:03:54.286Z,67.71
2022-12-08T13:06:34.108Z,66.87
2022-12-08T13:09:05.127Z,66.18
2022-12-08T13:11:50.207Z,66.93
2022-12-08T13:14:36.455Z,64.96
2022-12-08T13:17:13.065Z,65.89
2022-12-08T13:19:48.883Z,63.57
2022-12-08T13:23:03.329Z,66.30
2022-12-08T13:25:42.315Z,65.98
2022-12-08T13:28:23.942Z,63.06
2022-12-08T13:30:59.474Z,64.18
2022-12-08T13:33:42.711Z,65.49
2022-12-08T13:36:36.763Z,64.80
2022-12-08T13:39:07.945Z,62.69
2022-12-08T13:41:42.875Z,64.90
2022-12-08T13:45:18.734Z,65.78
2022-12-08T13:47:41.440Z,64.52
2022-12-08T13:54:45.418Z,64.47
2022-12-08T13:59:29.659Z,62.50
2022-12-08T14:02:46.840Z,63.23
2022-12-08T14:05:35.195Z,62.28
2022-12-08T14:09:00.046Z,63.23
2022-12-08T14:11:41.329Z,64.14
2022-12-08T14:14:46.004Z,62.48
2022-12-08T14:17:18.770Z,60.89
2022-12-08T14:20:02.009Z,61.13
2022-12-08T14:22:37.641Z,62.07
2022-12-08T14:25:13.284Z,61.20
2022-12-08T14:27:44.588Z,61.06
2022-12-08T14:30:15.598Z,60.69
2022-12-08T14:33:06.474Z,61.13
2022-12-08T14:35:40.385Z,59.12
2022-12-08T14:38:19.416Z,59.70
2022-12-08T14:41:01.136Z,60.81
2022-12-08T14:43:33.007Z,59.19
2022-12-08T14:46:21.092Z,60.23
2022-12-08T14:48:51.518Z,60.27
2022-12-08T14:51:24.603Z,59.51
2022-12-08T14:54:08.167Z,60.00
2022-12-08T14:56:39.719Z,59.34
2022-12-08T14:59:10.045Z,56.87
2022-12-08T15:01:41.038Z,59.62
2022-12-08T15:04:14.419Z,58.62
2022-12-08T15:06:55.739Z,58.23
2022-12-08T15:09:45.231Z,59.14
2022-12-08T15:12:15.487Z,57.35
2022-12-08T15:14:58.044Z,59.69
2022-12-08T15:17:31.370Z,57.69
2022-12-08T15:20:03.925Z,58.13
2022-12-08T15:22:35.193Z,58.33
2022-12-08T15:25:05.904Z,59.75
2022-12-08T15:27:46.917Z,59.36
2022-12-08T15:30:20.732Z,57.02
2022-12-08T15:32:53.719Z,57.98
2022-12-08T15:35:24.129Z,58.89
2022-12-08T15:37:54.478Z,57.48
2022-12-08T15:40:27.206Z,60.33
2022-12-08T15:42:57.682Z,59.66
2022-12-08T15:45:33.124Z,57.00
2022-12-08T15:48:03.333Z,56.25
2022-12-08T15:50:33.597Z,57.42
2022-12-08T15:53:03.922Z,60.10
2022-12-08T15:55:38.821Z,58.29
2022-12-08T16:01:03.231Z,58.19
2022-12-08T16:04:19.816Z,56.47
2022-12-08T16:07:19.270Z,54.97
2022-12-08T16:09:39.827Z,55.26
2022-12-08T16:16:00.801Z,55.78
2022-12-08T16:18:35.887Z,54.30
2022-12-08T16:21:16.970Z,54.66
2022-12-08T16:23:57.132Z,55.28
2022-12-08T16:29:22.735Z,53.31
2022-12-08T16:31:53.466Z,53.93
2022-12-08T16:34:23.676Z,56.51
2022-12-08T16:36:54.855Z,52.66
2022-12-08T16:39:25.252Z,55.36
2022-12-08T16:42:13.608Z,53.60
2022-12-08T16:44:44.733Z,55.07
2022-12-08T16:47:15.112Z,53.34
2022-12-08T16:49:45.331Z,53.46
2022-12-08T16:52:15.550Z,53.83
2022-12-08T16:54:45.876Z,50.70
2022-12-08T16:57:16.373Z,51.80
2022-12-08T16:59:46.645Z,52.68
2022-12-08T17:02:16.901Z,53.36
2022-12-08T17:04:47.224Z,54.23
2022-12-08T17:07:17.577Z,52.38
2022-12-08T17:09:47.845Z,52.61
2022-12-08T17:12:18.212Z,52.62
2022-12-08T17:14:48.452Z,52.33
2022-12-08T17:17:18.619Z,52.43
2022-12-08T17:19:48.910Z,52.78
2022-12-08T17:22:19.276Z,51.28
2022-12-08T17:24:49.579Z,53.12
2022-12-08T17:27:19.845Z,52.46
2022-12-08T17:29:49.970Z,53.85
2022-12-08T17:32:21.174Z,54.28
2022-12-08T17:34:51.871Z,52.18
2022-12-08T17:37:23.019Z,52.59
2022-12-08T17:39:53.345Z,52.31
2022-12-08T17:42:27.237Z,52.60
2022-12-08T17:44:57.520Z,51.30
2022-12-08T17:47:27.821Z,51.98
2022-12-08T17:49:58.141Z,51.30
2022-12-08T17:52:29.088Z,52.92
2022-12-08T17:54:59.380Z,53.70
2022-12-08T17:57:29.656Z,49.97
2022-12-08T18:00:00.253Z,50.64
2022-12-08T18:02:32.303Z,51.45
2022-12-08T18:05:02.749Z,50.86
2022-12-08T18:07:33.089Z,52.36
2022-12-08T18:10:03.575Z,50.99
2022-12-08T18:12:34.188Z,50.92
2022-12-08T18:15:06.131Z,51.21
2022-12-08T18:17:36.434Z,51.48
2022-12-08T18:20:07.995Z,51.51
2022-12-08T18:22:55.328Z,53.63
2022-12-08T18:25:26.411Z,53.25
2022-12-08T18:27:56.942Z,54.02
2022-12-08T18:30:27.707Z,51.97
2022-12-08T18:32:57.977Z,49.90
2022-12-08T18:35:29.926Z,50.65
2022-12-08T18:38:01.722Z,49.78
2022-12-08T18:40:32.285Z,49.85
2022-12-08T18:43:02.595Z,51.64
2022-12-08T18:45:33.340Z,50.11
2022-12-08T18:48:04.926Z,51.41
2022-12-08T18:50:35.219Z,50.61
2022-12-08T18:53:05.515Z,50.63
2022-12-08T18:55:35.670Z,51.07
2022-12-08T18:58:05.962Z,50.12
2022-12-08T19:00:36.074Z,50.37
2022-12-08T19:03:06.528Z,49.07
2022-12-08T19:05:36.953Z,50.10
2022-12-08T19:08:08.299Z,49.88
2022-12-08T19:10:39.804Z,50.90
2022-12-08T19:13:10.541Z,50.25
2022-12-08T19:15:40.821Z,49.37
2022-12-08T19:18:11.234Z,50.09
2022-12-08T19:20:41.726Z,50.89
2022-12-08T19:23:14.560Z,50.18
2022-12-08T19:25:45.111Z,51.07
2022-12-08T19:28:15.124Z,51.84
2022-12-08T19:30:45.560Z,50.55
2022-12-08T19:33:16.079Z,50.56
2022-12-08T19:35:52.473Z,52.66
2022-12-08T19:38:23.111Z,52.42
2022-12-08T19:41:11.550Z,51.33
2022-12-08T19:43:59.933Z,51.56
2022-12-08T19:46:32.571Z,51.66
2022-12-08T19:49:05.961Z,53.37
2022-12-08T19:51:36.345Z,51.56
2022-12-08T19:54:06.706Z,52.60
2022-12-08T19:56:36.912Z,52.21
2022-12-08T19:59:07.198Z,51.68
2022-12-08T20:01:39.365Z,52.25
2022-12-08T20:04:09.729Z,52.62
2022-12-08T20:06:39.937Z,53.49
2022-12-08T20:09:11.680Z,53.83
2022-12-08T20:11:42.656Z,53.67
2022-12-08T20:14:13.076Z,54.04
2022-12-08T20:16:43.587Z,53.71
2022-12-08T20:19:14.087Z,53.79
2022-12-08T20:21:44.395Z,54.07
2022-12-08T20:24:14.511Z,54.21
2022-12-08T20:26:45.012Z,53.69
2022-12-08T20:29:18.135Z,53.74
2022-12-08T20:31:48.613Z,54.10
2022-12-08T20:34:20.742Z,53.84
2022-12-08T20:36:51.047Z,55.08
2022-12-08T20:39:21.542Z,54.63
2022-12-08T20:41:53.304Z,55.13
2022-12-08T20:44:23.922Z,54.81
2022-12-08T20:46:54.311Z,54.74
2022-12-08T20:49:28.604Z,53.89
2022-12-08T20:52:03.191Z,55.17
2022-12-08T20:54:33.821Z,57.49
2022-12-08T20:57:04.140Z,59.44
2022-12-08T20:59:34.843Z,60.49
2022-12-08T21:02:05.417Z,61.94
2022-12-08T21:04:35.997Z,63.08
2022-12-08T21:07:06.413Z,64.17
2022-12-08T21:09:38.183Z,64.72
2022-12-08T21:12:09.012Z,65.59
2022-12-08T21:14:39.544Z,66.28
2022-12-08T21:17:09.806Z,67.44
2022-12-08T21:19:40.605Z,67.69
2022-12-08T21:22:11.087Z,68.39
2022-12-08T21:24:41.550Z,68.32
2022-12-08T21:27:11.907Z,68.67
2022-12-08T21:29:42.275Z,69.02
2022-12-08T21:32:12.549Z,69.43
2022-12-08T21:34:45.329Z,70.22
2022-12-08T21:37:15.600Z,70.22
2022-12-08T21:39:46.217Z,70.20
2022-12-08T21:42:34.897Z,70.50
2022-12-08T21:45:05.551Z,70.44
2022-12-08T21:47:36.154Z,69.24
2022-12-08T21:50:08.536Z,70.22
2022-12-08T21:52:46.866Z,71.30
2022-12-08T21:55:20.417Z,71.70
2022-12-08T21:57:51.150Z,71.70
2022-12-08T22:00:22.328Z,72.05
2022-12-08T22:02:53.033Z,72.61
2022-12-08T22:05:23.458Z,73.24
2022-12-08T22:07:53.852Z,73.73
2022-12-08T22:10:25.021Z,73.84
2022-12-08T22:12:55.278Z,74.11
2022-12-08T22:15:26.217Z,74.20
2022-12-08T22:17:56.543Z,74.94
2022-12-08T22:20:27.439Z,74.41
2022-12-08T22:22:57.867Z,75.34
2022-12-08T22:25:28.150Z,75.20
2022-12-08T22:27:58.301Z,74.22
2022-12-08T22:30:28.655Z,72.90
2022-12-08T22:32:59.930Z,73.37
2022-12-08T22:35:29.960Z,72.96
2022-12-08T22:38:00.188Z,73.71
2022-12-08T22:40:34.977Z,74.29
2022-12-08T22:43:05.995Z,73.75
2022-12-08T22:45:36.557Z,72.79
2022-12-08T22:48:07.349Z,73.20
2022-12-08T22:50:37.779Z,74.16
2022-12-08T22:53:08.309Z,72.91
2022-12-08T22:55:45.460Z,72.40
2022-12-08T22:58:15.772Z,71.80
2022-12-08T23:00:46.351Z,72.37
2022-12-08T23:03:16.637Z,72.57
2022-12-08T23:05:47.613Z,73.22
2022-12-08T23:08:19.127Z,73.50
2022-12-08T23:10:54.262Z,74.05
2022-12-08T23:13:24.808Z,74.13
2022-12-08T23:15:55.277Z,74.11
2022-12-08T23:18:25.576Z,74.41
2022-12-08T23:20:55.872Z,74.60
2022-12-08T23:23:26.091Z,74.82
2022-12-08T23:25:55.563Z,74.67
2022-12-08T23:28:25.413Z,75.24
2022-12-08T23:30:55.805Z,75.02
2022-12-08T23:33:26.348Z,75.26
2022-12-08T23:36:00.076Z,75.21
2022-12-08T23:38:30.374Z,75.06
2022-12-08T23:41:06.818Z,75.20
2022-12-08T23:43:37.431Z,75.32
2022-12-08T23:46:07.864Z,75.46
2022-12-08T23:48:38.206Z,74.09
2022-12-08T23:51:08.776Z,73.88
2022-12-08T23:53:39.120Z,75.59
2022-12-08T23:56:12.706Z,76.81
2022-12-08T23:58:44.226Z,75.97
